Racecast

Griffin Tibai

Temperance Bedford (MI) · 8 · SECMI D1MONROE · Compare head to head

Athlete rating 127.5 2022 XC season
Best race 130.0 XC
Races 29
Seasons 3 2020 — 2022

RankedNation #7046·MI #1739·Team #30 ?

Rating scale ?

Cross Country

2022 XC 122.0

Temperance Bedford (MI) · Grade 8

Date Meet Event Result Place Rating Difficulty PR/SR Flags
2022-10-22 Hudson HS 3218m 13:31.6 76th · 9th on team 125.2 +0.029 ★CR CSR
2022-10-19 Saline High School 3218m 13:26.3 49th · 7th on team 125.5 +0.016 ★CR CSR
2022-10-15 Munson Park 3200m 13:01.2 35th · 7th on team 130.0 +0.034 ★PR ★CR ★R SR CSR RSR
2022-10-08 Monroe Township Stoneco Park 3218m 13:19.2 32nd · 9th on team 124.2 +0.006 ★PR ★CR SR CSR
2022-10-05 Tecumseh HS 3218m 15:09.8 64th · 9th on team 112.6 +0.036 ★CR CSR
2022-10-01 Lake Erie Metro Park OFFICIAL 3218m 13:28.5 55th · 7th on team 126.6 +0.034 PR ★CR SR CSR
2022-09-23 Ella Sharp Park OFFICIAL 3218m 13:38.6 74th · 8th on team 128.0 +0.055 PR ★CR R SR CSR RSR
2022-09-21 Manly W. Bennett Park 3218m 14:25.4 42nd · 5th on team 126.4 +0.100 ★CR R SR CSR RSR
2022-09-17 Ottawa Park Golf Course 3200m 13:51.9 36th · 6th on team 114.8 -0.037 PR ★CR SR CSR RSR
2022-09-10 Hedges Boyer Park 3200m 14:04.1 64th · 3rd on team 106.7 -0.089 PR ★CR SR CSR RSR

2021 XC 111.9

Temperance Bedford (MI) · Grade 7

Date Meet Event Result Place Rating Difficulty PR/SR Flags
2021-10-20 Munson Park 3200m 15:07 31st · 8th on team 113.7 +0.034 CR SR CSR
2021-10-16 Munson Park 3200m 15:27 43rd · 18th on team 111.2 +0.034 CR CSR
2021-10-09 Monroe Township Stoneco Park 3218m 14:20.4 4th · 4th on team 117.1 +0.006 PR CR SR CSR
2021-10-06 Hudson Mills Metropark - OFFICIAL 3218m 14:32.8 29th · 7th on team 121.9 +0.062 PR ★CR R SR CSR RSR
2021-10-02 Lake Erie Metro Park OFFICIAL 3218m 14:42.9 89th · 10th on team 117.2 +0.034 PR CR R SR CSR RSR
2021-09-24 Ella Sharp Park OFFICIAL 3218m 15:35.4 149th · 16th on team 114.6 +0.055 PR CR R SR CSR RSR
2021-09-11 Hedges Boyer Park 3200m 15:18.1 109th · 8th on team 99.2 -0.089 CR SR CSR
2021-09-01 Eastwood High School 3200m 15:50 71st · 14th on team 100.5 -0.040 ★CR SR CSR RSR

2020 XC 106.1

Temperance Bedford (MI) · Grade 6

Date Meet Event Result Place Rating Difficulty PR/SR Flags
2020-10-14 Indian Creek OFFICIAL 3200m 14:56 34th · 29th on team 113.6 +0.038 PR ★CR R SR CSR RSR
2020-10-07 Hudson Mills Metropark - OFFICIAL 3218m 16:53.2 44th · 27th on team 106.1 +0.062 CR CSR
2020-09-24 Indian Creek OFFICIAL 3200m 16:27 42nd · 30th on team 105.2 +0.038 PR CR SR CSR
2020-09-19 Indian Creek OFFICIAL 3218m 16:12 34th · 29th on team 105.1 +0.038 PR ★CR SR CSR
2020-09-16 Rolling Hills 3218m 16:38.2 32nd · 27th on team 109.5 +0.077 PR ★CR R SR CSR RSR
2020-09-09 Indian Creek OFFICIAL 3200m 17:25 33rd · 33rd on team 97.1 +0.038 PR CR R SR CSR RSR

Track & Field

2021 TF 95.7

Temperance Bedford (MI) · Grade 6

Date Meet Event Result Place Rating Difficulty PR/SR Flags
2021-05-10 Adrian MS @ Bedford MS 1600m 6:55.25 11th · 6th on team 96.8 -0.033 ★PR SR RSR
2021-05-10 Adrian MS @ Bedford MS 400m 1:30.07 13th · 10th on team -0.033 ★PR SR
2021-05-10 Adrian MS @ Bedford MS 200m 40.1 21st · 18th on team -0.033 ★PR SR
2021-04-29 Dexter MS @ Bedford MS 100m 18.08 31st · 20th on team -0.033 ★PR SR
2021-04-29 Dexter MS @ Bedford MS 800m 3:14.43 14th · 9th on team 94.6 -0.033 ★PR SR RSR